sensor_id;sensor_type;location;lat;lon;timestamp;pressure;altitude;pressure_sealevel;temperature;humidity
61900;BME280;47853;55.890;37.664;2024-02-04T00:02:22;96151.22;;;1.35;100.00
61900;BME280;47853;55.890;37.664;2024-02-04T00:04:48;96148.94;;;1.25;100.00
61900;BME280;47853;55.890;37.664;2024-02-04T00:07:13;96150.09;;;1.72;100.00
61900;BME280;47853;55.890;37.664;2024-02-04T00:09:39;96143.97;;;1.94;100.00
61900;BME280;47853;55.890;37.664;2024-02-04T00:12:04;96134.13;;;1.96;100.00
61900;BME280;47853;55.890;37.664;2024-02-04T00:14:30;96125.06;;;2.40;100.00
61900;BME280;47853;55.890;37.664;2024-02-04T00:16:55;96107.69;;;1.84;100.00
61900;BME280;47853;55.890;37.664;2024-02-04T00:19:21;96110.38;;;2.46;100.00
61900;BME280;47853;55.890;37.664;2024-02-04T00:21:46;96115.75;;;3.00;100.00
61900;BME280;47853;55.890;37.664;2024-02-04T00:24:12;96118.47;;;2.51;100.00
61900;BME280;47853;55.890;37.664;2024-02-04T00:26:37;96107.06;;;3.40;100.00
61900;BME280;47853;55.890;37.664;2024-02-04T00:29:02;96107.91;;;2.38;100.00
61900;BME280;47853;55.890;37.664;2024-02-04T00:31:28;96091.03;;;2.54;100.00
61900;BME280;47853;55.890;37.664;2024-02-04T00:33:54;96090.34;;;3.14;100.00
61900;BME280;47853;55.890;37.664;2024-02-04T00:36:19;96084.19;;;2.53;100.00
61900;BME280;47853;55.890;37.664;2024-02-04T00:38:45;96088.75;;;2.30;100.00
61900;BME280;47853;55.890;37.664;2024-02-04T00:41:11;96094.06;;;2.44;100.00
61900;BME280;47853;55.890;37.664;2024-02-04T00:43:36;96073.66;;;2.26;100.00
61900;BME280;47853;55.890;37.664;2024-02-04T00:46:01;96071.88;;;2.40;100.00
61900;BME280;47853;55.890;37.664;2024-02-04T00:48:27;96070.28;;;2.45;100.00
61900;BME280;47853;55.890;37.664;2024-02-04T00:50:52;96068.34;;;2.95;100.00
61900;BME280;47853;55.890;37.664;2024-02-04T00:53:18;96058.47;;;2.77;100.00
61900;BME280;47853;55.890;37.664;2024-02-04T00:55:43;96055.25;;;3.28;100.00
61900;BME280;47853;55.890;37.664;2024-02-04T00:58:09;96053.41;;;3.15;100.00
61900;BME280;47853;55.890;37.664;2024-02-04T01:00:34;96052.00;;;3.46;100.00
61900;BME280;47853;55.890;37.664;2024-02-04T01:02:59;96050.75;;;3.56;100.00
61900;BME280;47853;55.890;37.664;2024-02-04T01:05:25;96048.03;;;2.14;100.00
61900;BME280;47853;55.890;37.664;2024-02-04T01:07:50;96037.28;;;2.85;100.00
61900;BME280;47853;55.890;37.664;2024-02-04T01:10:16;96033.41;;;3.48;100.00
61900;BME280;47853;55.890;37.664;2024-02-04T01:12:41;96027.59;;;2.72;100.00
61900;BME280;47853;55.890;37.664;2024-02-04T01:15:07;96031.44;;;2.63;100.00
61900;BME280;47853;55.890;37.664;2024-02-04T01:17:32;96015.13;;;2.67;100.00
61900;BME280;47853;55.890;37.664;2024-02-04T01:19:58;96013.22;;;3.48;100.00
61900;BME280;47853;55.890;37.664;2024-02-04T01:22:23;96002.78;;;3.35;100.00
61900;BME280;47853;55.890;37.664;2024-02-04T01:24:49;96005.03;;;2.71;100.00
61900;BME280;47853;55.890;37.664;2024-02-04T01:27:14;95999.28;;;3.61;100.00
61900;BME280;47853;55.890;37.664;2024-02-04T01:29:39;95996.72;;;3.94;100.00
61900;BME280;47853;55.890;37.664;2024-02-04T01:32:05;95995.13;;;3.13;100.00
61900;BME280;47853;55.890;37.664;2024-02-04T01:34:30;96001.66;;;3.70;100.00
61900;BME280;47853;55.890;37.664;2024-02-04T01:36:56;95990.25;;;2.29;100.00
61900;BME280;47853;55.890;37.664;2024-02-04T01:39:21;95987.97;;;3.61;100.00
61900;BME280;47853;55.890;37.664;2024-02-04T01:41:47;95988.34;;;4.49;100.00
61900;BME280;47853;55.890;37.664;2024-02-04T01:44:12;95980.66;;;3.76;100.00
61900;BME280;47853;55.890;37.664;2024-02-04T01:46:37;95976.78;;;3.86;100.00
61900;BME280;47853;55.890;37.664;2024-02-04T01:49:03;95975.81;;;2.87;100.00
61900;BME280;47853;55.890;37.664;2024-02-04T01:51:28;95959.75;;;3.43;100.00
61900;BME280;47853;55.890;37.664;2024-02-04T01:53:54;95967.75;;;2.55;100.00
61900;BME280;47853;55.890;37.664;2024-02-04T01:56:19;95956.81;;;2.31;100.00
61900;BME280;47853;55.890;37.664;2024-02-04T01:58:45;95955.88;;;2.66;100.00
61900;BME280;47853;55.890;37.664;2024-02-04T02:01:11;95966.44;;;3.45;100.00
61900;BME280;47853;55.890;37.664;2024-02-04T02:03:38;95956.63;;;2.40;100.00
61900;BME280;47853;55.890;37.664;2024-02-04T02:06:03;95949.41;;;2.49;100.00
61900;BME280;47853;55.890;37.664;2024-02-04T02:08:30;95952.81;;;2.83;100.00
61900;BME280;47853;55.890;37.664;2024-02-04T02:11:02;95938.63;;;3.24;100.00
61900;BME280;47853;55.890;37.664;2024-02-04T02:13:31;95941.13;;;2.72;100.00
61900;BME280;47853;55.890;37.664;2024-02-04T02:16:16;95939.13;;;2.87;100.00
61900;BME280;47853;55.890;37.664;2024-02-04T02:18:52;95936.66;;;3.72;100.00
61900;BME280;47853;55.890;37.664;2024-02-04T02:24:24;95929.44;;;2.95;100.00
61900;BME280;47853;55.890;37.664;2024-02-04T02:26:50;95912.47;;;3.63;100.00
61900;BME280;47853;55.890;37.664;2024-02-04T02:29:16;95916.56;;;3.98;100.00
61900;BME280;47853;55.890;37.664;2024-02-04T02:31:42;95922.69;;;3.78;100.00
61900;BME280;47853;55.890;37.664;2024-02-04T02:34:09;95915.94;;;2.51;100.00
61900;BME280;47853;55.890;37.664;2024-02-04T02:36:44;95910.69;;;2.71;100.00
61900;BME280;47853;55.890;37.664;2024-02-04T02:39:15;95914.53;;;2.88;100.00
61900;BME280;47853;55.890;37.664;2024-02-04T02:41:42;95913.31;;;2.78;100.00
61900;BME280;47853;55.890;37.664;2024-02-04T02:44:09;95902.03;;;3.56;100.00
61900;BME280;47853;55.890;37.664;2024-02-04T02:46:37;95904.25;;;2.46;100.00
61900;BME280;47853;55.890;37.664;2024-02-04T02:49:03;95888.66;;;3.05;100.00
61900;BME280;47853;55.890;37.664;2024-02-04T02:51:28;95886.84;;;3.13;100.00
61900;BME280;47853;55.890;37.664;2024-02-04T02:53:54;95898.00;;;2.74;100.00
61900;BME280;47853;55.890;37.664;2024-02-04T02:56:19;95887.50;;;2.88;100.00
61900;BME280;47853;55.890;37.664;2024-02-04T02:58:44;95878.41;;;4.20;100.00
61900;BME280;47853;55.890;37.664;2024-02-04T03:01:10;95889.94;;;3.48;100.00
61900;BME280;47853;55.890;37.664;2024-02-04T03:03:35;95887.81;;;3.18;100.00
61900;BME280;47853;55.890;37.664;2024-02-04T03:06:01;95864.56;;;3.29;100.00
61900;BME280;47853;55.890;37.664;2024-02-04T03:08:26;95868.13;;;3.48;100.00
61900;BME280;47853;55.890;37.664;2024-02-04T03:10:51;95870.34;;;3.90;100.00
61900;BME280;47853;55.890;37.664;2024-02-04T03:13:17;95863.78;;;3.35;100.00
61900;BME280;47853;55.890;37.664;2024-02-04T03:15:42;95863.84;;;3.60;100.00
61900;BME280;47853;55.890;37.664;2024-02-04T03:18:08;95862.28;;;3.46;100.00
61900;BME280;47853;55.890;37.664;2024-02-04T03:20:33;95854.75;;;4.27;100.00
61900;BME280;47853;55.890;37.664;2024-02-04T03:22:59;95866.88;;;3.96;100.00
61900;BME280;47853;55.890;37.664;2024-02-04T03:25:24;95856.78;;;3.61;100.00
61900;BME280;47853;55.890;37.664;2024-02-04T03:27:50;95859.25;;;4.20;100.00
61900;BME280;47853;55.890;37.664;2024-02-04T03:30:15;95861.06;;;3.55;100.00
61900;BME280;47853;55.890;37.664;2024-02-04T03:32:41;95863.59;;;3.69;100.00
61900;BME280;47853;55.890;37.664;2024-02-04T03:35:07;95859.38;;;3.68;100.00
61900;BME280;47853;55.890;37.664;2024-02-04T03:37:32;95856.38;;;4.21;100.00
61900;BME280;47853;55.890;37.664;2024-02-04T03:39:57;95847.19;;;3.73;100.00
61900;BME280;47853;55.890;37.664;2024-02-04T03:42:23;95832.91;;;4.01;100.00
61900;BME280;47853;55.890;37.664;2024-02-04T03:44:48;95836.22;;;3.05;100.00
61900;BME280;47853;55.890;37.664;2024-02-04T03:47:14;95853.59;;;2.93;100.00
61900;BME280;47853;55.890;37.664;2024-02-04T03:49:40;95833.06;;;4.32;100.00
61900;BME280;47853;55.890;37.664;2024-02-04T03:52:05;95828.19;;;4.10;100.00
61900;BME280;47853;55.890;37.664;2024-02-04T03:54:30;95828.34;;;4.15;100.00
61900;BME280;47853;55.890;37.664;2024-02-04T03:56:56;95825.72;;;3.90;100.00
61900;BME280;47853;55.890;37.664;2024-02-04T03:59:21;95824.28;;;4.19;100.00
61900;BME280;47853;55.890;37.664;2024-02-04T04:01:48;95825.34;;;4.12;100.00
61900;BME280;47853;55.890;37.664;2024-02-04T04:04:13;95814.63;;;3.56;100.00
61900;BME280;47853;55.890;37.664;2024-02-04T04:06:39;95819.19;;;4.25;100.00
61900;BME280;47853;55.890;37.664;2024-02-04T04:09:04;95819.34;;;4.30;100.00
61900;BME280;47853;55.890;37.664;2024-02-04T04:11:30;95821.94;;;4.11;100.00
61900;BME280;47853;55.890;37.664;2024-02-04T04:13:55;95825.06;;;3.24;100.00
61900;BME280;47853;55.890;37.664;2024-02-04T04:16:21;95836.91;;;3.79;100.00
61900;BME280;47853;55.890;37.664;2024-02-04T04:18:47;95824.81;;;4.28;100.00
61900;BME280;47853;55.890;37.664;2024-02-04T04:21:12;95824.38;;;4.57;100.00
61900;BME280;47853;55.890;37.664;2024-02-04T04:23:37;95824.84;;;3.96;100.00
61900;BME280;47853;55.890;37.664;2024-02-04T04:26:03;95812.78;;;4.83;100.00
61900;BME280;47853;55.890;37.664;2024-02-04T04:28:28;95818.91;;;4.77;100.00
61900;BME280;47853;55.890;37.664;2024-02-04T04:30:54;95806.97;;;4.12;100.00
61900;BME280;47853;55.890;37.664;2024-02-04T04:33:20;95808.72;;;4.18;100.00
61900;BME280;47853;55.890;37.664;2024-02-04T04:35:45;95811.03;;;4.07;100.00
61900;BME280;47853;55.890;37.664;2024-02-04T04:38:11;95806.34;;;3.84;100.00
61900;BME280;47853;55.890;37.664;2024-02-04T04:40:36;95808.72;;;3.92;100.00
61900;BME280;47853;55.890;37.664;2024-02-04T04:43:01;95797.19;;;4.44;100.00
61900;BME280;47853;55.890;37.664;2024-02-04T04:45:27;95798.13;;;4.06;100.00
61900;BME280;47853;55.890;37.664;2024-02-04T04:47:52;95801.78;;;4.05;100.00
61900;BME280;47853;55.890;37.664;2024-02-04T04:50:18;95809.06;;;3.77;100.00
61900;BME280;47853;55.890;37.664;2024-02-04T04:52:43;95806.03;;;4.50;100.00
61900;BME280;47853;55.890;37.664;2024-02-04T04:55:09;95806.09;;;4.18;100.00
61900;BME280;47853;55.890;37.664;2024-02-04T04:57:34;95787.22;;;4.28;100.00
61900;BME280;47853;55.890;37.664;2024-02-04T05:00:00;95793.34;;;4.21;100.00
61900;BME280;47853;55.890;37.664;2024-02-04T05:02:25;95797.69;;;4.09;100.00
61900;BME280;47853;55.890;37.664;2024-02-04T05:04:50;95791.47;;;4.03;100.00
61900;BME280;47853;55.890;37.664;2024-02-04T05:07:16;95788.25;;;3.76;100.00
61900;BME280;47853;55.890;37.664;2024-02-04T05:09:41;95783.78;;;4.53;100.00
61900;BME280;47853;55.890;37.664;2024-02-04T05:12:08;95779.25;;;3.90;100.00
61900;BME280;47853;55.890;37.664;2024-02-04T05:14:34;95784.63;;;4.02;100.00
61900;BME280;47853;55.890;37.664;2024-02-04T05:16:59;95776.56;;;3.72;100.00
61900;BME280;47853;55.890;37.664;2024-02-04T05:19:25;95788.41;;;4.06;100.00
61900;BME280;47853;55.890;37.664;2024-02-04T05:21:50;95769.31;;;4.18;100.00
61900;BME280;47853;55.890;37.664;2024-02-04T05:24:16;95764.34;;;3.59;100.00
61900;BME280;47853;55.890;37.664;2024-02-04T05:26:41;95773.31;;;4.46;100.00
61900;BME280;47853;55.890;37.664;2024-02-04T05:29:07;95780.75;;;4.30;100.00
61900;BME280;47853;55.890;37.664;2024-02-04T05:31:32;95768.50;;;4.61;100.00
61900;BME280;47853;55.890;37.664;2024-02-04T05:33:58;95772.75;;;4.44;100.00
61900;BME280;47853;55.890;37.664;2024-02-04T05:36:23;95775.16;;;4.45;100.00
61900;BME280;47853;55.890;37.664;2024-02-04T05:38:48;95778.72;;;3.82;100.00
61900;BME280;47853;55.890;37.664;2024-02-04T05:41:14;95780.97;;;4.29;100.00
61900;BME280;47853;55.890;37.664;2024-02-04T05:43:39;95776.09;;;4.32;100.00
61900;BME280;47853;55.890;37.664;2024-02-04T05:46:05;95779.41;;;3.96;100.00
61900;BME280;47853;55.890;37.664;2024-02-04T05:48:30;95769.06;;;3.75;100.00
61900;BME280;47853;55.890;37.664;2024-02-04T05:50:56;95773.75;;;4.99;100.00
61900;BME280;47853;55.890;37.664;2024-02-04T05:53:21;95771.22;;;4.11;100.00
61900;BME280;47853;55.890;37.664;2024-02-04T05:55:47;95787.50;;;4.82;100.00
61900;BME280;47853;55.890;37.664;2024-02-04T05:58:12;95773.69;;;4.49;100.00
61900;BME280;47853;55.890;37.664;2024-02-04T06:00:38;95777.16;;;4.25;100.00
61900;BME280;47853;55.890;37.664;2024-02-04T06:03:03;95772.72;;;5.49;100.00
61900;BME280;47853;55.890;37.664;2024-02-04T06:05:29;95763.75;;;5.80;100.00
61900;BME280;47853;55.890;37.664;2024-02-04T06:07:54;95778.63;;;5.75;100.00
61900;BME280;47853;55.890;37.664;2024-02-04T06:10:20;95784.22;;;4.87;100.00
61900;BME280;47853;55.890;37.664;2024-02-04T06:12:45;95783.28;;;4.81;100.00
61900;BME280;47853;55.890;37.664;2024-02-04T06:15:14;95778.72;;;4.07;100.00
61900;BME280;47853;55.890;37.664;2024-02-04T06:17:40;95785.28;;;5.77;100.00
61900;BME280;47853;55.890;37.664;2024-02-04T06:20:05;95785.09;;;4.99;100.00
61900;BME280;47853;55.890;37.664;2024-02-04T06:22:31;95806.75;;;5.32;100.00
61900;BME280;47853;55.890;37.664;2024-02-04T06:24:56;95777.34;;;4.86;100.00
61900;BME280;47853;55.890;37.664;2024-02-04T06:27:22;95807.69;;;5.37;100.00
61900;BME280;47853;55.890;37.664;2024-02-04T06:29:47;95814.81;;;5.18;100.00
61900;BME280;47853;55.890;37.664;2024-02-04T06:32:13;95810.25;;;4.07;100.00
61900;BME280;47853;55.890;37.664;2024-02-04T06:34:38;95818.81;;;5.51;100.00
61900;BME280;47853;55.890;37.664;2024-02-04T06:37:04;95820.84;;;5.68;100.00
61900;BME280;47853;55.890;37.664;2024-02-04T06:39:29;95831.59;;;5.36;100.00
61900;BME280;47853;55.890;37.664;2024-02-04T06:41:55;95827.88;;;5.86;100.00
61900;BME280;47853;55.890;37.664;2024-02-04T06:44:20;95837.56;;;5.74;100.00
61900;BME280;47853;55.890;37.664;2024-02-04T06:46:45;95835.69;;;5.32;100.00
61900;BME280;47853;55.890;37.664;2024-02-04T06:49:11;95845.63;;;5.79;100.00
61900;BME280;47853;55.890;37.664;2024-02-04T06:51:36;95835.56;;;6.42;100.00
61900;BME280;47853;55.890;37.664;2024-02-04T06:54:02;95829.69;;;6.04;100.00
61900;BME280;47853;55.890;37.664;2024-02-04T06:56:27;95840.78;;;6.06;100.00
61900;BME280;47853;55.890;37.664;2024-02-04T06:58:52;95839.47;;;6.51;100.00
61900;BME280;47853;55.890;37.664;2024-02-04T07:01:18;95841.41;;;6.80;100.00
61900;BME280;47853;55.890;37.664;2024-02-04T07:03:43;95852.88;;;6.50;100.00
61900;BME280;47853;55.890;37.664;2024-02-04T07:06:09;95858.88;;;6.03;100.00
61900;BME280;47853;55.890;37.664;2024-02-04T07:08:34;95860.34;;;5.68;100.00
61900;BME280;47853;55.890;37.664;2024-02-04T07:11:00;95860.19;;;5.93;100.00
61900;BME280;47853;55.890;37.664;2024-02-04T07:13:25;95872.25;;;6.79;100.00
61900;BME280;47853;55.890;37.664;2024-02-04T07:15:50;95874.03;;;6.31;100.00
61900;BME280;47853;55.890;37.664;2024-02-04T07:18:16;95873.47;;;5.19;100.00
61900;BME280;47853;55.890;37.664;2024-02-04T07:20:41;95886.66;;;6.29;100.00
61900;BME280;47853;55.890;37.664;2024-02-04T07:23:07;95879.72;;;6.82;100.00
61900;BME280;47853;55.890;37.664;2024-02-04T07:25:32;95881.09;;;5.76;100.00
61900;BME280;47853;55.890;37.664;2024-02-04T07:27:58;95890.13;;;6.65;100.00
61900;BME280;47853;55.890;37.664;2024-02-04T07:30:23;95905.63;;;7.09;100.00
61900;BME280;47853;55.890;37.664;2024-02-04T07:32:49;95899.88;;;6.89;100.00
61900;BME280;47853;55.890;37.664;2024-02-04T07:35:14;95903.38;;;7.54;100.00
61900;BME280;47853;55.890;37.664;2024-02-04T07:37:40;95903.09;;;7.67;100.00
61900;BME280;47853;55.890;37.664;2024-02-04T07:40:06;95912.38;;;5.85;100.00
61900;BME280;47853;55.890;37.664;2024-02-04T07:42:31;95914.31;;;6.62;100.00
61900;BME280;47853;55.890;37.664;2024-02-04T07:44:57;95911.34;;;6.16;100.00
61900;BME280;47853;55.890;37.664;2024-02-04T07:47:22;95910.78;;;6.92;100.00
61900;BME280;47853;55.890;37.664;2024-02-04T07:49:48;95923.69;;;6.46;100.00
61900;BME280;47853;55.890;37.664;2024-02-04T07:52:14;95930.59;;;6.83;100.00
61900;BME280;47853;55.890;37.664;2024-02-04T07:54:39;95927.03;;;6.11;100.00
61900;BME280;47853;55.890;37.664;2024-02-04T07:57:05;95927.91;;;6.23;100.00
61900;BME280;47853;55.890;37.664;2024-02-04T07:59:31;95942.81;;;5.80;100.00
61900;BME280;47853;55.890;37.664;2024-02-04T08:01:56;95938.81;;;5.59;100.00
61900;BME280;47853;55.890;37.664;2024-02-04T08:04:22;95958.66;;;6.42;100.00
61900;BME280;47853;55.890;37.664;2024-02-04T08:06:47;95956.47;;;5.15;100.00
61900;BME280;47853;55.890;37.664;2024-02-04T08:09:13;95966.56;;;5.92;100.00
61900;BME280;47853;55.890;37.664;2024-02-04T08:11:38;95958.78;;;6.16;100.00
61900;BME280;47853;55.890;37.664;2024-02-04T08:14:04;95960.16;;;6.19;100.00
61900;BME280;47853;55.890;37.664;2024-02-04T08:16:29;95961.97;;;6.06;100.00
61900;BME280;47853;55.890;37.664;2024-02-04T08:18:55;95980.53;;;6.12;100.00
61900;BME280;47853;55.890;37.664;2024-02-04T08:21:20;95976.75;;;5.70;100.00
61900;BME280;47853;55.890;37.664;2024-02-04T08:23:45;95987.03;;;6.94;100.00
61900;BME280;47853;55.890;37.664;2024-02-04T08:26:11;95981.25;;;6.19;100.00
61900;BME280;47853;55.890;37.664;2024-02-04T08:28:36;95985.28;;;5.28;100.00
61900;BME280;47853;55.890;37.664;2024-02-04T08:31:02;96007.06;;;4.91;100.00
61900;BME280;47853;55.890;37.664;2024-02-04T08:33:27;96007.16;;;5.85;100.00
61900;BME280;47853;55.890;37.664;2024-02-04T08:35:53;96008.56;;;6.24;100.00
61900;BME280;47853;55.890;37.664;2024-02-04T08:38:18;96009.88;;;5.78;100.00
61900;BME280;47853;55.890;37.664;2024-02-04T08:40:43;96025.72;;;6.27;100.00
61900;BME280;47853;55.890;37.664;2024-02-04T08:43:09;96011.72;;;4.89;100.00
61900;BME280;47853;55.890;37.664;2024-02-04T08:45:34;96019.88;;;5.50;100.00
61900;BME280;47853;55.890;37.664;2024-02-04T08:48:00;96024.38;;;5.87;100.00
61900;BME280;47853;55.890;37.664;2024-02-04T08:50:25;96025.84;;;6.20;100.00
61900;BME280;47853;55.890;37.664;2024-02-04T08:52:50;96021.88;;;6.84;100.00
61900;BME280;47853;55.890;37.664;2024-02-04T08:55:16;96034.50;;;6.70;100.00
61900;BME280;47853;55.890;37.664;2024-02-04T08:57:41;96038.25;;;5.57;100.00
61900;BME280;47853;55.890;37.664;2024-02-04T09:00:07;96034.00;;;6.61;100.00
61900;BME280;47853;55.890;37.664;2024-02-04T09:02:33;96041.06;;;7.03;100.00
61900;BME280;47853;55.890;37.664;2024-02-04T09:04:58;96035.56;;;6.50;100.00
61900;BME280;47853;55.890;37.664;2024-02-04T09:07:23;96042.63;;;6.68;100.00
61900;BME280;47853;55.890;37.664;2024-02-04T09:09:49;96030.06;;;6.52;100.00
61900;BME280;47853;55.890;37.664;2024-02-04T09:12:14;96048.81;;;5.76;100.00
61900;BME280;47853;55.890;37.664;2024-02-04T09:14:40;96048.34;;;6.16;100.00
61900;BME280;47853;55.890;37.664;2024-02-04T09:17:05;96053.34;;;5.43;100.00
61900;BME280;47853;55.890;37.664;2024-02-04T09:19:31;96052.47;;;6.12;100.00
61900;BME280;47853;55.890;37.664;2024-02-04T09:21:56;96052.13;;;5.64;100.00
61900;BME280;47853;55.890;37.664;2024-02-04T09:24:22;96057.19;;;5.66;100.00
61900;BME280;47853;55.890;37.664;2024-02-04T09:26:47;96054.97;;;6.56;100.00
61900;BME280;47853;55.890;37.664;2024-02-04T09:29:13;96058.00;;;4.97;100.00
61900;BME280;47853;55.890;37.664;2024-02-04T09:31:38;96048.41;;;5.54;100.00
61900;BME280;47853;55.890;37.664;2024-02-04T09:34:04;96041.31;;;4.46;100.00
61900;BME280;47853;55.890;37.664;2024-02-04T09:36:29;96074.03;;;5.84;100.00
61900;BME280;47853;55.890;37.664;2024-02-04T09:38:55;96048.09;;;4.60;100.00
61900;BME280;47853;55.890;37.664;2024-02-04T09:41:20;96054.81;;;4.88;100.00
61900;BME280;47853;55.890;37.664;2024-02-04T09:43:46;96076.56;;;5.53;100.00
61900;BME280;47853;55.890;37.664;2024-02-04T09:46:11;96057.06;;;5.61;100.00
61900;BME280;47853;55.890;37.664;2024-02-04T09:48:38;96063.22;;;6.11;100.00
61900;BME280;47853;55.890;37.664;2024-02-04T09:51:06;96067.69;;;6.10;100.00
61900;BME280;47853;55.890;37.664;2024-02-04T09:53:33;96073.50;;;5.05;100.00
61900;BME280;47853;55.890;37.664;2024-02-04T09:56:01;96076.88;;;4.87;100.00
61900;BME280;47853;55.890;37.664;2024-02-04T09:58:27;96077.75;;;5.06;100.00
61900;BME280;47853;55.890;37.664;2024-02-04T10:00:53;96067.66;;;5.73;100.00
61900;BME280;47853;55.890;37.664;2024-02-04T10:03:19;96083.81;;;5.76;100.00
61900;BME280;47853;55.890;37.664;2024-02-04T10:05:44;96075.06;;;5.39;100.00
61900;BME280;47853;55.890;37.664;2024-02-04T10:08:10;96070.69;;;5.32;100.00
61900;BME280;47853;55.890;37.664;2024-02-04T10:10:45;96085.00;;;5.11;100.00
61900;BME280;47853;55.890;37.664;2024-02-04T10:13:10;96088.06;;;5.96;100.00
61900;BME280;47853;55.890;37.664;2024-02-04T10:15:36;96088.59;;;4.53;100.00
61900;BME280;47853;55.890;37.664;2024-02-04T10:18:05;96083.72;;;5.46;100.00
61900;BME280;47853;55.890;37.664;2024-02-04T10:20:32;96088.38;;;5.18;100.00
61900;BME280;47853;55.890;37.664;2024-02-04T10:22:57;96098.00;;;4.67;100.00
61900;BME280;47853;55.890;37.664;2024-02-04T10:25:23;96097.63;;;4.63;100.00
61900;BME280;47853;55.890;37.664;2024-02-04T10:27:48;96082.78;;;5.96;100.00
61900;BME280;47853;55.890;37.664;2024-02-04T10:30:14;96099.00;;;5.56;100.00
61900;BME280;47853;55.890;37.664;2024-02-04T10:32:41;96100.13;;;5.16;100.00
61900;BME280;47853;55.890;37.664;2024-02-04T10:35:07;96109.31;;;5.57;100.00
61900;BME280;47853;55.890;37.664;2024-02-04T10:37:33;96111.44;;;6.11;100.00
61900;BME280;47853;55.890;37.664;2024-02-04T10:39:58;96115.78;;;6.43;97.73
61900;BME280;47853;55.890;37.664;2024-02-04T10:42:26;96113.75;;;5.82;95.03
61900;BME280;47853;55.890;37.664;2024-02-04T10:44:53;96118.19;;;5.37;99.32
61900;BME280;47853;55.890;37.664;2024-02-04T10:47:22;96113.81;;;5.75;98.99
61900;BME280;47853;55.890;37.664;2024-02-04T10:49:50;96117.47;;;5.74;96.54
61900;BME280;47853;55.890;37.664;2024-02-04T10:52:17;96123.72;;;5.55;100.00
61900;BME280;47853;55.890;37.664;2024-02-04T10:54:44;96126.19;;;5.49;97.78
61900;BME280;47853;55.890;37.664;2024-02-04T10:57:13;96119.97;;;4.41;100.00
61900;BME280;47853;55.890;37.664;2024-02-04T10:59:38;96118.19;;;4.34;100.00
61900;BME280;47853;55.890;37.664;2024-02-04T11:02:05;96136.75;;;4.85;100.00
61900;BME280;47853;55.890;37.664;2024-02-04T11:04:32;96136.38;;;5.39;100.00
61900;BME280;47853;55.890;37.664;2024-02-04T11:06:59;96152.03;;;5.59;97.90
61900;BME280;47853;55.890;37.664;2024-02-04T11:09:25;96143.81;;;5.93;95.59
61900;BME280;47853;55.890;37.664;2024-02-04T11:11:53;96134.72;;;6.33;89.09
61900;BME280;47853;55.890;37.664;2024-02-04T11:14:22;96127.28;;;6.30;92.42
61900;BME280;47853;55.890;37.664;2024-02-04T11:22:51;96119.25;;;5.55;95.92
61900;BME280;47853;55.890;37.664;2024-02-04T11:25:43;96139.38;;;5.17;100.00
61900;BME280;47853;55.890;37.664;2024-02-04T11:28:11;96141.78;;;5.19;98.03
61900;BME280;47853;55.890;37.664;2024-02-04T11:30:37;96141.16;;;5.23;97.28
61900;BME280;47853;55.890;37.664;2024-02-04T11:36:00;96155.03;;;5.63;96.08
61900;BME280;47853;55.890;37.664;2024-02-04T11:38:35;96157.13;;;5.54;94.44
61900;BME280;47853;55.890;37.664;2024-02-04T11:41:02;96153.53;;;6.18;88.93
61900;BME280;47853;55.890;37.664;2024-02-04T11:43:28;96153.09;;;6.02;92.93
61900;BME280;47853;55.890;37.664;2024-02-04T11:45:54;96152.59;;;6.31;86.81
61900;BME280;47853;55.890;37.664;2024-02-04T11:51:05;96151.94;;;6.17;88.36
61900;BME280;47853;55.890;37.664;2024-02-04T11:53:30;96167.47;;;6.44;84.30
61900;BME280;47853;55.890;37.664;2024-02-04T11:55:56;96155.13;;;5.49;92.52
61900;BME280;47853;55.890;37.664;2024-02-04T11:58:22;96165.66;;;5.49;90.34
61900;BME280;47853;55.890;37.664;2024-02-04T12:00:48;96162.19;;;6.06;90.80
61900;BME280;47853;55.890;37.664;2024-02-04T12:03:16;96177.84;;;6.57;87.01
61900;BME280;47853;55.890;37.664;2024-02-04T12:05:42;96173.75;;;7.22;79.25
61900;BME280;47853;55.890;37.664;2024-02-04T12:08:08;96174.84;;;6.72;77.48
61900;BME280;47853;55.890;37.664;2024-02-04T12:10:36;96183.63;;;7.93;72.58
61900;BME280;47853;55.890;37.664;2024-02-04T12:13:06;96179.63;;;7.91;69.81
61900;BME280;47853;55.890;37.664;2024-02-04T12:15:34;96192.91;;;7.60;70.15
61900;BME280;47853;55.890;37.664;2024-02-04T12:18:10;96194.09;;;6.54;76.28
61900;BME280;47853;55.890;37.664;2024-02-04T12:20:37;96170.38;;;6.35;78.09
61900;BME280;47853;55.890;37.664;2024-02-04T12:23:07;96172.94;;;6.42;74.92
61900;BME280;47853;55.890;37.664;2024-02-04T12:25:34;96185.53;;;6.77;73.26
61900;BME280;47853;55.890;37.664;2024-02-04T12:28:00;96190.22;;;6.38;73.36
61900;BME280;47853;55.890;37.664;2024-02-04T12:30:27;96191.38;;;6.61;73.17
61900;BME280;47853;55.890;37.664;2024-02-04T12:33:00;96195.78;;;6.67;71.49
61900;BME280;47853;55.890;37.664;2024-02-04T12:35:27;96183.16;;;6.88;74.58
61900;BME280;47853;55.890;37.664;2024-02-04T12:37:52;96188.63;;;5.10;81.35
61900;BME280;47853;55.890;37.664;2024-02-04T12:40:31;96192.56;;;6.65;77.92
61900;BME280;47853;55.890;37.664;2024-02-04T12:45:23;96195.75;;;4.96;82.28
61900;BME280;47853;55.890;37.664;2024-02-04T12:47:52;96207.53;;;5.83;82.67
61900;BME280;47853;55.890;37.664;2024-02-04T12:50:19;96207.91;;;6.12;78.44
61900;BME280;47853;55.890;37.664;2024-02-04T12:52:45;96203.66;;;5.86;79.09
61900;BME280;47853;55.890;37.664;2024-02-04T12:55:23;96208.88;;;5.67;78.47
61900;BME280;47853;55.890;37.664;2024-02-04T12:57:48;96215.47;;;4.73;80.93
61900;BME280;47853;55.890;37.664;2024-02-04T13:00:17;96225.84;;;6.03;78.98
61900;BME280;47853;55.890;37.664;2024-02-04T13:02:43;96210.28;;;6.20;79.05
61900;BME280;47853;55.890;37.664;2024-02-04T13:05:08;96213.72;;;6.77;75.06